Time;durP1;ratioP1;P1;durP2;ratioP2;P2;SDS_P1;SDS_P2;PMS_P1;PMS_P2;Temp;Humidity;BMP_temperature;BMP_pressure;BME280_temperature;BME280_humidity;BME280_pressure;Samples;Min_cycle;Max_cycle;Signal;HPM_P1;HPM_P2
2022/02/15 11:54:06;;;;;;;;;;;;;;;;;;;;;
2022/02/15 11:56:33;;;;;;;;;4.00;2.00;;;;;13.68;51.92;101299.00;6310288;22;74455;-82
2022/02/15 12:00:05;;;;;;;;;;;;;;;;;;;;;
2022/02/15 12:02:20;;;;;;;;;1.00;1.00;;;;;13.94;51.71;101292.59;6299537;22;45362;-85
2022/02/15 12:05:04;;;;;;;;;;;;;;;;;;;;;
2022/02/15 12:08:11;;;;;;;;;;;;;;;;;;;;;
2022/02/15 12:10:52;;;;;;;;;;;;;;;;;;;;;
2022/02/15 12:13:48;;;;;;;;;;;;;;;;;;;;;
2022/02/15 12:19:07;;;;;;;;;3.00;2.00;;;;;13.32;52.03;101265.72;6282901;22;45959;-87
2022/02/15 12:21:38;;;;;;;;;7.00;3.00;;;;;13.26;52.29;101271.06;6278239;22;45375;-83
2022/02/15 12:24:04;;;;;;;;;6.00;5.00;;;;;13.19;52.11;101267.53;6278849;22;45447;-82
2022/02/15 12:26:29;;;;;;;;;2.00;2.00;;;;;13.12;52.51;101260.53;6281348;22;45363;-87
2022/02/15 12:28:58;;;;;;;;;2.33;2.00;;;;;13.12;52.68;101270.22;6279402;22;47520;-84
2022/02/15 12:31:24;;;;;;;;;1.00;1.00;;;;;12.96;53.00;101243.91;6278765;22;45140;-84
2022/02/15 12:33:49;;;;;;;;;2.00;1.00;;;;;12.89;52.98;101255.38;6307497;22;45518;-84
2022/02/15 12:36:15;;;;;;;;;0.67;0.67;;;;;12.73;53.00;101243.13;6308192;22;45357;-84
2022/02/15 12:38:41;;;;;;;;;2.33;1.67;;;;;12.73;53.24;101269.56;6279418;22;48097;-85
2022/02/15 12:41:17;;;;;;;;;4.00;4.00;;;;;12.55;53.65;101247.59;6275616;22;45465;-85
2022/02/15 12:43:46;;;;;;;;;1.33;1.33;;;;;12.48;54.13;101239.69;6277109;22;45477;-85
2022/02/15 12:46:14;;;;;;;;;2.33;1.00;;;;;12.41;53.87;101245.91;6281233;22;45402;-84
2022/02/15 12:48:44;;;;;;;;;3.67;3.33;;;;;12.42;54.04;101253.78;6279753;22;47447;-84
2022/02/15 12:51:10;;;;;;;;;2.00;2.00;;;;;12.30;54.47;101236.25;6279338;22;46046;-84
2022/02/15 12:53:36;;;;;;;;;3.33;2.33;;;;;12.29;54.72;101234.47;6280399;22;45267;-85
2022/02/15 12:56:09;;;;;;;;;4.00;3.00;;;;;12.31;54.65;101248.56;6280068;22;45403;-85
2022/02/15 12:58:35;;;;;;;;;2.00;2.00;;;;;12.25;54.74;101232.72;6308892;22;45541;-85
2022/02/15 13:01:06;;;;;;;;;5.67;1.00;;;;;12.29;54.91;101226.53;6306806;22;45274;-85
2022/02/15 13:03:33;;;;;;;;;7.00;4.00;;;;;12.27;54.73;101225.69;6280664;22;45251;-85
2022/02/15 13:06:10;;;;;;;;;1.33;0.33;;;;;12.27;54.75;101230.06;6280416;22;45503;-85
2022/02/15 13:09:19;;;;;;;;;0.67;0.67;;;;;12.16;55.15;101218.66;6307833;22;47403;-85
2022/02/15 13:12:08;;;;;;;;;3.00;1.00;;;;;12.19;55.36;101223.94;6221712;22;45418;-86
2022/02/15 13:14:36;;;;;;;;;3.00;1.00;;;;;12.14;55.22;101214.28;6256981;22;45385;-83
2022/02/15 15:12:31;;;;;;;;;4.00;2.25;;;;;11.05;63.25;101152.81;6057111;23;45323;-90
2022/02/15 15:15:19;;;;;;;;;2.00;1.00;;;;;11.00;63.77;101134.34;6155653;23;45531;-93
2022/02/15 15:24:33;;;;;;;;;2.50;2.50;;;;;11.02;64.10;101121.19;6227142;22;46011;-87
2022/02/15 15:27:39;;;;;;;;;5.75;4.25;;;;;11.11;64.03;101134.38;6245149;22;45308;-87
2022/02/15 15:33:59;;;;;;;;;;;;;;;;;;;;;
2022/02/15 15:37:36;;;;;;;;;;;;;;;;;;;;;
2022/02/15 15:43:42;;;;;;;;;2.00;2.00;;;;;11.04;64.12;101107.16;6215281;22;45468;-85
2022/02/15 15:46:08;;;;;;;;;3.00;2.00;;;;;11.03;63.76;101088.69;6243310;22;45461;-85
2022/02/15 15:48:51;;;;;;;;;;;;;;;;;;;;;
2022/02/15 16:02:27;;;;;;;;;;;;;;;;;;;;;
2022/02/15 16:12:54;;;;;;;;;;;;;;;;;;;;;
2022/02/15 16:16:17;;;;;;;;;;;;;;;;;;;;;
2022/02/15 16:23:08;;;;;;;;;;;;;;;;;;;;;
2022/02/15 16:25:46;;;;;;;;;;;;;;;;;;;;;
2022/02/15 16:29:09;;;;;;;;;3.00;3.00;;;;;10.99;65.79;101044.81;5947540;23;75547;-90
2022/02/15 17:31:27;;;;;;;;;;;;;;;;;;;;;
2022/02/15 21:14:49;;;;;;;;;;;;;;;;;;;;;
2022/02/15 21:17:47;;;;;;;;;4.25;3.00;;;;;10.43;73.00;100821.94;6185241;23;71061;-88
2022/02/15 21:20:15;;;;;;;;;2.00;2.00;;;;;10.40;73.13;100795.59;6182822;23;45528;-84
2022/02/15 21:22:54;;;;;;;;;3.00;2.00;;;;;10.50;73.14;100807.88;6307901;22;45298;-84
2022/02/15 21:25:33;;;;;;;;;3.00;2.00;;;;;10.42;73.42;100807.00;6282283;22;45410;-85
2022/02/15 21:28:07;;;;;;;;;4.75;3.75;;;;;10.49;73.48;100807.00;6281320;22;45429;-84
2022/02/15 21:30:40;;;;;;;;;1.00;1.00;;;;;10.44;73.68;100792.97;6279202;22;47000;-84
2022/02/15 21:33:24;;;;;;;;;2.00;2.00;;;;;10.48;73.79;100791.22;6276070;22;45512;-85
2022/02/15 21:35:49;;;;;;;;;2.00;2.00;;;;;10.45;73.88;100792.09;6279261;22;45556;-81
2022/02/15 21:38:16;;;;;;;;;2.25;2.25;;;;;10.48;73.77;100802.63;6307030;22;45352;-82
2022/02/15 21:40:41;;;;;;;;;2.00;2.00;;;;;10.48;73.78;100796.50;6278008;22;47959;-83
2022/02/15 21:43:07;;;;;;;;;2.00;2.00;;;;;10.47;73.91;100799.97;6279323;22;45456;-83
2022/02/15 21:45:33;;;;;;;;;2.50;2.50;;;;;10.45;73.52;100789.47;6280161;22;45477;-83
2022/02/15 21:48:06;;;;;;;;;2.25;2.25;;;;;10.46;73.90;100792.97;6281425;22;45411;-83
2022/02/15 21:50:38;;;;;;;;;4.00;3.00;;;;;10.34;73.85;100764.91;6310416;22;46172;-84
2022/02/15 21:53:06;;;;;;;;;2.00;2.00;;;;;10.41;73.72;100768.41;6281507;22;45331;-84
2022/02/15 21:55:33;;;;;;;;;2.75;2.25;;;;;10.36;73.86;100760.53;6283931;22;44814;-84
2022/02/15 21:57:59;;;;;;;;;2.50;2.00;;;;;10.47;74.13;100774.53;6285303;22;45409;-83
2022/02/15 22:00:28;;;;;;;;;2.00;2.00;;;;;10.39;74.17;100750.00;6283478;22;46569;-85
2022/02/15 22:02:54;;;;;;;;;1.75;1.75;;;;;10.43;74.14;100749.13;6311191;22;45381;-82
2022/02/15 22:05:20;;;;;;;;;1.50;1.50;;;;;10.47;74.25;100765.75;6281582;22;45361;-83
2022/02/15 22:07:48;;;;;;;;;1.75;1.75;;;;;10.47;74.38;100761.38;6311320;22;45851;-84
2022/02/15 22:10:23;;;;;;;;;3.50;3.50;;;;;10.44;74.03;100757.88;6283629;22;47514;-84
2022/02/15 22:12:54;;;;;;;;;2.00;2.00;;;;;10.40;74.44;100745.59;6282653;22;45441;-84
2022/02/15 22:15:22;;;;;;;;;2.25;1.00;;;;;10.47;74.31;100761.38;6279205;22;46072;-84
2022/02/15 22:24:58;;;;;;;;;1.67;1.00;;;;;10.44;74.23;100724.53;6156453;23;45443;-83
2022/02/15 22:27:37;;;;;;;;;;;;;;;;;;;;;
2022/02/15 22:30:15;;;;;;;;;2.33;1.00;;;;;10.47;74.48;100723.66;6281034;22;73615;-82
2022/02/15 22:33:02;;;;;;;;;;;;;;;;;;;;;
2022/02/15 22:36:00;;;;;;;;;;;;;;;;;;;;;
2022/02/15 22:38:31;;;;;;;;;0.33;0.33;;;;;10.48;74.35;100720.16;6312130;22;69068;-81
2022/02/15 22:40:59;;;;;;;;;2.00;0.33;;;;;10.47;74.88;100707.88;6282114;22;46148;-80
2022/02/15 22:43:24;;;;;;;;;1.00;1.00;;;;;10.44;74.37;100716.63;6310345;22;46142;-82
2022/02/15 22:46:00;;;;;;;;;;;;;;;;;;;;;
2022/02/15 22:48:35;;;;;;;;;1.00;0.00;;;;;10.50;74.70;100699.94;6311293;22;67826;-80
2022/02/15 22:51:00;;;;;;;;;1.00;1.00;;;;;10.41;74.62;100692.09;6312243;22;45406;-81
2022/02/15 22:53:29;;;;;;;;;1.00;1.00;;;;;10.43;74.70;100690.34;6282462;22;48012;-83
2022/02/15 22:55:55;;;;;;;;;0.00;0.00;;;;;10.45;74.61;100700.00;6282855;22;45322;-82
2022/02/15 22:58:28;;;;;;;;;2.00;2.00;;;;;10.49;74.66;100693.81;6283768;22;45405;-82
2022/02/15 23:00:56;;;;;;;;;1.00;1.00;;;;;10.48;74.52;100697.34;6289546;22;45457;-83
2022/02/15 23:03:34;;;;;;;;;;;;;;;;;;;;;
2022/02/15 23:19:49;;;;;;;;;1.00;0.33;;;;;10.52;74.71;100685.91;5944450;23;45508;-86
2022/02/15 23:22:15;;;;;;;;;2.00;2.00;;;;;10.52;74.88;100687.66;5960815;23;45582;-81
2022/02/15 23:24:40;;;;;;;;;0.00;0.00;;;;;10.49;74.60;100666.63;6141660;22;45415;-83
2022/02/15 23:27:11;;;;;;;;;1.00;1.00;;;;;10.52;74.47;100667.47;6246055;22;47001;-82
2022/02/15 23:29:36;;;;;;;;;1.00;1.00;;;;;10.53;74.55;100671.88;6249528;22;45466;-82
2022/02/15 23:32:04;;;;;;;;;0.00;0.00;;;;;10.51;74.68;100662.25;6247626;22;45449;-83
2022/02/15 23:34:40;;;;;;;;;0.33;0.00;;;;;10.62;74.46;100665.69;6273283;22;45623;-84
2022/02/15 23:37:36;;;;;;;;;;;;;;;;;;;;;
2022/02/15 23:40:18;;;;;;;;;;;;;;;;;;;;;
2022/02/15 23:42:47;;;;;;;;;1.00;1.00;;;;;10.64;74.98;100671.81;6246907;22;67813;-84
2022/02/15 23:45:17;;;;;;;;;1.00;1.00;;;;;10.65;74.82;100664.78;6246632;22;45379;-83
2022/02/15 23:47:52;;;;;;;;;;;;;;;;;;;;;
2022/02/15 23:50:26;;;;;;;;;0.67;0.67;;;;;10.55;74.96;100630.59;6245041;22;73015;-84
2022/02/15 23:52:53;;;;;;;;;1.00;1.00;;;;;10.66;74.83;100662.13;6243297;22;45499;-83
2022/02/15 23:58:29;;;;;;;;;1.00;1.00;;;;;10.60;74.78;100644.63;6214325;22;45474;-82
